sensor_id;sensor_type;location;lat;lon;timestamp;P1;durP1;ratioP1;P2;durP2;ratioP2
18228;SDS011;9239;50.932;3.142;2023-05-20T00:02:16;18.87;;;11.23;;
18228;SDS011;9239;50.932;3.142;2023-05-20T00:04:43;18.87;;;11.13;;
18228;SDS011;9239;50.932;3.142;2023-05-20T00:07:11;17.57;;;11.13;;
18228;SDS011;9239;50.932;3.142;2023-05-20T00:09:38;19.90;;;11.97;;
18228;SDS011;9239;50.932;3.142;2023-05-20T00:12:05;19.10;;;10.83;;
18228;SDS011;9239;50.932;3.142;2023-05-20T00:14:32;14.87;;;11.00;;
18228;SDS011;9239;50.932;3.142;2023-05-20T00:16:59;20.10;;;12.23;;
18228;SDS011;9239;50.932;3.142;2023-05-20T00:19:26;19.07;;;12.10;;
18228;SDS011;9239;50.932;3.142;2023-05-20T00:21:53;19.20;;;11.93;;
18228;SDS011;9239;50.932;3.142;2023-05-20T00:24:23;21.77;;;14.13;;
18228;SDS011;9239;50.932;3.142;2023-05-20T00:26:50;18.47;;;11.90;;
18228;SDS011;9239;50.932;3.142;2023-05-20T00:29:17;20.27;;;12.77;;
18228;SDS011;9239;50.932;3.142;2023-05-20T00:31:45;19.57;;;11.93;;
18228;SDS011;9239;50.932;3.142;2023-05-20T00:34:12;20.43;;;11.93;;
18228;SDS011;9239;50.932;3.142;2023-05-20T00:36:39;19.83;;;12.33;;
18228;SDS011;9239;50.932;3.142;2023-05-20T00:39:07;19.17;;;12.23;;
18228;SDS011;9239;50.932;3.142;2023-05-20T00:41:35;18.50;;;12.20;;
18228;SDS011;9239;50.932;3.142;2023-05-20T00:44:03;16.20;;;12.23;;
18228;SDS011;9239;50.932;3.142;2023-05-20T00:46:30;23.63;;;15.33;;
18228;SDS011;9239;50.932;3.142;2023-05-20T00:48:57;20.47;;;12.83;;
18228;SDS011;9239;50.932;3.142;2023-05-20T00:51:24;18.43;;;12.80;;
18228;SDS011;9239;50.932;3.142;2023-05-20T00:53:51;21.90;;;11.70;;
18228;SDS011;9239;50.932;3.142;2023-05-20T00:56:19;15.87;;;12.63;;
18228;SDS011;9239;50.932;3.142;2023-05-20T00:58:48;21.93;;;12.90;;
18228;SDS011;9239;50.932;3.142;2023-05-20T01:01:16;17.30;;;12.43;;
18228;SDS011;9239;50.932;3.142;2023-05-20T01:03:42;19.60;;;13.57;;
18228;SDS011;9239;50.932;3.142;2023-05-20T01:06:09;18.87;;;13.73;;
18228;SDS011;9239;50.932;3.142;2023-05-20T01:08:36;20.40;;;14.13;;
18228;SDS011;9239;50.932;3.142;2023-05-20T01:11:05;18.63;;;13.57;;
18228;SDS011;9239;50.932;3.142;2023-05-20T01:13:35;22.07;;;14.23;;
18228;SDS011;9239;50.932;3.142;2023-05-20T01:16:09;21.83;;;13.20;;
18228;SDS011;9239;50.932;3.142;2023-05-20T01:18:36;17.83;;;13.07;;
18228;SDS011;9239;50.932;3.142;2023-05-20T01:21:06;19.20;;;13.57;;
18228;SDS011;9239;50.932;3.142;2023-05-20T01:23:38;19.33;;;14.10;;
18228;SDS011;9239;50.932;3.142;2023-05-20T01:26:05;19.93;;;13.27;;
18228;SDS011;9239;50.932;3.142;2023-05-20T01:28:33;15.93;;;12.10;;
18228;SDS011;9239;50.932;3.142;2023-05-20T01:31:03;16.83;;;13.67;;
18228;SDS011;9239;50.932;3.142;2023-05-20T01:33:32;16.87;;;12.77;;
18228;SDS011;9239;50.932;3.142;2023-05-20T01:36:01;19.83;;;13.93;;
18228;SDS011;9239;50.932;3.142;2023-05-20T01:38:29;21.43;;;13.83;;
18228;SDS011;9239;50.932;3.142;2023-05-20T01:40:58;21.23;;;13.50;;
18228;SDS011;9239;50.932;3.142;2023-05-20T01:43:28;16.33;;;13.43;;
18228;SDS011;9239;50.932;3.142;2023-05-20T01:45:56;15.77;;;12.67;;
18228;SDS011;9239;50.932;3.142;2023-05-20T01:48:22;14.17;;;11.73;;
18228;SDS011;9239;50.932;3.142;2023-05-20T01:50:49;15.73;;;13.10;;
18228;SDS011;9239;50.932;3.142;2023-05-20T01:53:17;14.67;;;12.23;;
18228;SDS011;9239;50.932;3.142;2023-05-20T01:55:43;19.17;;;12.37;;
18228;SDS011;9239;50.932;3.142;2023-05-20T01:58:12;18.00;;;12.00;;
18228;SDS011;9239;50.932;3.142;2023-05-20T02:00:39;14.43;;;11.43;;
18228;SDS011;9239;50.932;3.142;2023-05-20T02:03:06;19.20;;;11.93;;
18228;SDS011;9239;50.932;3.142;2023-05-20T02:05:32;17.97;;;12.80;;
18228;SDS011;9239;50.932;3.142;2023-05-20T02:07:59;13.43;;;10.87;;
18228;SDS011;9239;50.932;3.142;2023-05-20T02:10:26;19.13;;;12.57;;
18228;SDS011;9239;50.932;3.142;2023-05-20T02:12:53;15.87;;;11.90;;
18228;SDS011;9239;50.932;3.142;2023-05-20T02:15:21;15.80;;;11.00;;
18228;SDS011;9239;50.932;3.142;2023-05-20T02:17:48;14.47;;;11.40;;
18228;SDS011;9239;50.932;3.142;2023-05-20T02:20:15;17.20;;;10.93;;
18228;SDS011;9239;50.932;3.142;2023-05-20T02:22:43;15.93;;;11.13;;
18228;SDS011;9239;50.932;3.142;2023-05-20T02:25:10;14.37;;;10.60;;
18228;SDS011;9239;50.932;3.142;2023-05-20T02:27:37;13.27;;;10.40;;
18228;SDS011;9239;50.932;3.142;2023-05-20T02:30:05;13.63;;;10.73;;
18228;SDS011;9239;50.932;3.142;2023-05-20T02:32:34;12.87;;;10.40;;
18228;SDS011;9239;50.932;3.142;2023-05-20T02:35:02;10.80;;;9.70;;
18228;SDS011;9239;50.932;3.142;2023-05-20T02:37:29;14.10;;;10.93;;
18228;SDS011;9239;50.932;3.142;2023-05-20T02:39:56;11.97;;;9.03;;
18228;SDS011;9239;50.932;3.142;2023-05-20T02:42:23;13.00;;;10.30;;
18228;SDS011;9239;50.932;3.142;2023-05-20T02:44:50;15.50;;;9.50;;
18228;SDS011;9239;50.932;3.142;2023-05-20T02:47:20;11.30;;;9.77;;
18228;SDS011;9239;50.932;3.142;2023-05-20T02:49:48;10.53;;;9.37;;
18228;SDS011;9239;50.932;3.142;2023-05-20T02:52:15;13.27;;;9.77;;
18228;SDS011;9239;50.932;3.142;2023-05-20T02:54:42;10.63;;;9.40;;
18228;SDS011;9239;50.932;3.142;2023-05-20T02:57:09;13.50;;;9.00;;
18228;SDS011;9239;50.932;3.142;2023-05-20T02:59:36;13.23;;;9.73;;
18228;SDS011;9239;50.932;3.142;2023-05-20T03:02:03;13.43;;;8.63;;
18228;SDS011;9239;50.932;3.142;2023-05-20T03:04:30;15.67;;;9.90;;
18228;SDS011;9239;50.932;3.142;2023-05-20T03:06:59;10.17;;;9.03;;
18228;SDS011;9239;50.932;3.142;2023-05-20T03:09:25;12.57;;;9.17;;
18228;SDS011;9239;50.932;3.142;2023-05-20T03:11:53;11.70;;;8.27;;
18228;SDS011;9239;50.932;3.142;2023-05-20T03:14:19;12.57;;;8.10;;
18228;SDS011;9239;50.932;3.142;2023-05-20T03:16:46;11.17;;;9.13;;
18228;SDS011;9239;50.932;3.142;2023-05-20T03:19:13;12.90;;;8.20;;
18228;SDS011;9239;50.932;3.142;2023-05-20T03:21:41;11.40;;;8.43;;
18228;SDS011;9239;50.932;3.142;2023-05-20T03:24:12;11.37;;;7.83;;
18228;SDS011;9239;50.932;3.142;2023-05-20T03:26:40;13.13;;;7.73;;
18228;SDS011;9239;50.932;3.142;2023-05-20T03:29:08;14.50;;;8.83;;
18228;SDS011;9239;50.932;3.142;2023-05-20T03:31:35;10.60;;;7.57;;
18228;SDS011;9239;50.932;3.142;2023-05-20T03:34:02;8.67;;;7.87;;
18228;SDS011;9239;50.932;3.142;2023-05-20T03:36:29;10.43;;;7.60;;
18228;SDS011;9239;50.932;3.142;2023-05-20T03:38:56;13.10;;;8.93;;
18228;SDS011;9239;50.932;3.142;2023-05-20T03:41:25;8.97;;;7.53;;
18228;SDS011;9239;50.932;3.142;2023-05-20T03:43:51;11.97;;;8.17;;
18228;SDS011;9239;50.932;3.142;2023-05-20T03:46:19;10.33;;;8.10;;
18228;SDS011;9239;50.932;3.142;2023-05-20T03:48:45;12.87;;;8.40;;
18228;SDS011;9239;50.932;3.142;2023-05-20T03:51:12;10.47;;;7.60;;
18228;SDS011;9239;50.932;3.142;2023-05-20T03:53:39;8.23;;;7.37;;
18228;SDS011;9239;50.932;3.142;2023-05-20T03:56:06;8.30;;;7.13;;
18228;SDS011;9239;50.932;3.142;2023-05-20T03:58:35;10.50;;;7.20;;
18228;SDS011;9239;50.932;3.142;2023-05-20T04:01:02;8.13;;;7.33;;
18228;SDS011;9239;50.932;3.142;2023-05-20T04:03:29;12.03;;;7.60;;
18228;SDS011;9239;50.932;3.142;2023-05-20T04:05:56;9.67;;;7.50;;
18228;SDS011;9239;50.932;3.142;2023-05-20T04:08:23;9.10;;;7.33;;
18228;SDS011;9239;50.932;3.142;2023-05-20T04:10:54;9.07;;;6.77;;
18228;SDS011;9239;50.932;3.142;2023-05-20T04:13:21;11.83;;;7.20;;
18228;SDS011;9239;50.932;3.142;2023-05-20T04:15:51;8.10;;;6.97;;
18228;SDS011;9239;50.932;3.142;2023-05-20T04:18:18;10.83;;;7.00;;
18228;SDS011;9239;50.932;3.142;2023-05-20T04:20:45;9.63;;;6.73;;
18228;SDS011;9239;50.932;3.142;2023-05-20T04:23:12;7.40;;;6.60;;
18228;SDS011;9239;50.932;3.142;2023-05-20T04:25:39;7.37;;;6.67;;
18228;SDS011;9239;50.932;3.142;2023-05-20T04:28:08;9.73;;;6.90;;
18228;SDS011;9239;50.932;3.142;2023-05-20T04:30:38;9.60;;;6.83;;
18228;SDS011;9239;50.932;3.142;2023-05-20T04:33:07;8.43;;;6.73;;
18228;SDS011;9239;50.932;3.142;2023-05-20T04:35:35;7.83;;;6.17;;
18228;SDS011;9239;50.932;3.142;2023-05-20T04:38:05;7.00;;;6.10;;
18228;SDS011;9239;50.932;3.142;2023-05-20T04:40:32;10.03;;;7.57;;
18228;SDS011;9239;50.932;3.142;2023-05-20T04:42:59;8.97;;;6.40;;
18228;SDS011;9239;50.932;3.142;2023-05-20T04:45:27;7.50;;;5.80;;
18228;SDS011;9239;50.932;3.142;2023-05-20T04:47:54;8.27;;;5.77;;
18228;SDS011;9239;50.932;3.142;2023-05-20T04:50:23;7.97;;;6.67;;
18228;SDS011;9239;50.932;3.142;2023-05-20T04:52:50;8.40;;;6.60;;
18228;SDS011;9239;50.932;3.142;2023-05-20T04:55:17;7.47;;;5.90;;
18228;SDS011;9239;50.932;3.142;2023-05-20T04:57:45;6.67;;;6.00;;
18228;SDS011;9239;50.932;3.142;2023-05-20T05:00:12;10.53;;;6.00;;
18228;SDS011;9239;50.932;3.142;2023-05-20T05:02:40;6.80;;;6.10;;
18228;SDS011;9239;50.932;3.142;2023-05-20T05:05:07;8.87;;;6.67;;
18228;SDS011;9239;50.932;3.142;2023-05-20T05:07:36;9.33;;;6.03;;
18228;SDS011;9239;50.932;3.142;2023-05-20T05:10:03;10.17;;;7.00;;
18228;SDS011;9239;50.932;3.142;2023-05-20T05:12:30;10.50;;;5.60;;
18228;SDS011;9239;50.932;3.142;2023-05-20T05:14:57;10.47;;;6.33;;
18228;SDS011;9239;50.932;3.142;2023-05-20T05:17:24;7.17;;;5.50;;
18228;SDS011;9239;50.932;3.142;2023-05-20T05:19:52;10.30;;;6.33;;
18228;SDS011;9239;50.932;3.142;2023-05-20T05:22:19;6.80;;;6.13;;
18228;SDS011;9239;50.932;3.142;2023-05-20T05:24:48;7.57;;;5.80;;
18228;SDS011;9239;50.932;3.142;2023-05-20T05:27:15;6.53;;;5.13;;
18228;SDS011;9239;50.932;3.142;2023-05-20T05:29:42;8.83;;;5.33;;
18228;SDS011;9239;50.932;3.142;2023-05-20T05:32:09;7.07;;;5.93;;
18228;SDS011;9239;50.932;3.142;2023-05-20T05:34:35;9.93;;;5.67;;
18228;SDS011;9239;50.932;3.142;2023-05-20T05:37:02;9.63;;;6.03;;
18228;SDS011;9239;50.932;3.142;2023-05-20T05:39:30;7.13;;;5.60;;
18228;SDS011;9239;50.932;3.142;2023-05-20T05:41:58;9.07;;;5.43;;
18228;SDS011;9239;50.932;3.142;2023-05-20T05:44:25;6.88;;;5.43;;
18228;SDS011;9239;50.932;3.142;2023-05-20T05:46:52;9.18;;;6.38;;
18228;SDS011;9239;50.932;3.142;2023-05-20T05:49:19;5.50;;;5.00;;
18228;SDS011;9239;50.932;3.142;2023-05-20T05:51:46;7.53;;;6.00;;
18228;SDS011;9239;50.932;3.142;2023-05-20T05:54:13;9.95;;;5.65;;
18228;SDS011;9239;50.932;3.142;2023-05-20T05:56:40;8.05;;;6.05;;
18228;SDS011;9239;50.932;3.142;2023-05-20T05:59:08;7.75;;;6.03;;
18228;SDS011;9239;50.932;3.142;2023-05-20T06:01:35;8.07;;;5.72;;
18228;SDS011;9239;50.932;3.142;2023-05-20T06:04:02;6.80;;;6.15;;
18228;SDS011;9239;50.932;3.142;2023-05-20T06:06:30;7.07;;;5.72;;
18228;SDS011;9239;50.932;3.142;2023-05-20T06:08:57;7.25;;;6.55;;
18228;SDS011;9239;50.932;3.142;2023-05-20T06:11:24;7.80;;;5.43;;
18228;SDS011;9239;50.932;3.142;2023-05-20T06:13:51;8.90;;;6.55;;
18228;SDS011;9239;50.932;3.142;2023-05-20T06:16:19;7.60;;;6.30;;
18228;SDS011;9239;50.932;3.142;2023-05-20T06:18:46;10.73;;;5.53;;
18228;SDS011;9239;50.932;3.142;2023-05-20T06:21:14;8.35;;;5.70;;
18228;SDS011;9239;50.932;3.142;2023-05-20T06:23:42;7.13;;;6.20;;
18228;SDS011;9239;50.932;3.142;2023-05-20T06:26:08;7.47;;;6.72;;
18228;SDS011;9239;50.932;3.142;2023-05-20T06:28:37;6.95;;;6.28;;
18228;SDS011;9239;50.932;3.142;2023-05-20T06:31:05;7.65;;;6.13;;
18228;SDS011;9239;50.932;3.142;2023-05-20T06:33:33;7.50;;;6.30;;
18228;SDS011;9239;50.932;3.142;2023-05-20T06:36:00;9.57;;;6.72;;
18228;SDS011;9239;50.932;3.142;2023-05-20T06:38:27;9.55;;;6.15;;
18228;SDS011;9239;50.932;3.142;2023-05-20T06:40:54;6.38;;;5.78;;
18228;SDS011;9239;50.932;3.142;2023-05-20T06:43:21;8.93;;;6.90;;
18228;SDS011;9239;50.932;3.142;2023-05-20T06:45:48;7.22;;;6.20;;
18228;SDS011;9239;50.932;3.142;2023-05-20T06:48:15;8.15;;;7.13;;
18228;SDS011;9239;50.932;3.142;2023-05-20T06:50:44;7.65;;;6.68;;
18228;SDS011;9239;50.932;3.142;2023-05-20T06:53:11;9.65;;;7.00;;
18228;SDS011;9239;50.932;3.142;2023-05-20T06:55:38;7.80;;;6.68;;
18228;SDS011;9239;50.932;3.142;2023-05-20T06:58:05;8.45;;;6.72;;
18228;SDS011;9239;50.932;3.142;2023-05-20T07:00:32;8.93;;;6.80;;
18228;SDS011;9239;50.932;3.142;2023-05-20T07:02:59;8.00;;;6.68;;
18228;SDS011;9239;50.932;3.142;2023-05-20T07:05:26;8.23;;;6.35;;
18228;SDS011;9239;50.932;3.142;2023-05-20T07:07:54;7.05;;;6.35;;
18228;SDS011;9239;50.932;3.142;2023-05-20T07:10:21;8.57;;;6.72;;
18228;SDS011;9239;50.932;3.142;2023-05-20T07:12:48;8.75;;;7.47;;
18228;SDS011;9239;50.932;3.142;2023-05-20T07:15:15;7.63;;;6.78;;
18228;SDS011;9239;50.932;3.142;2023-05-20T07:17:42;7.13;;;6.43;;
18228;SDS011;9239;50.932;3.142;2023-05-20T07:20:09;8.95;;;6.40;;
18228;SDS011;9239;50.932;3.142;2023-05-20T07:22:36;8.10;;;6.45;;
18228;SDS011;9239;50.932;3.142;2023-05-20T07:25:05;7.97;;;6.78;;
18228;SDS011;9239;50.932;3.142;2023-05-20T07:27:33;9.15;;;6.45;;
18228;SDS011;9239;50.932;3.142;2023-05-20T07:30:00;9.30;;;6.25;;
18228;SDS011;9239;50.932;3.142;2023-05-20T07:32:27;7.18;;;5.72;;
18228;SDS011;9239;50.932;3.142;2023-05-20T07:34:54;7.95;;;6.25;;
18228;SDS011;9239;50.932;3.142;2023-05-20T07:37:21;8.68;;;6.03;;
18228;SDS011;9239;50.932;3.142;2023-05-20T07:39:48;6.38;;;5.78;;
18228;SDS011;9239;50.932;3.142;2023-05-20T07:42:16;8.23;;;5.80;;
18228;SDS011;9239;50.932;3.142;2023-05-20T07:44:43;9.25;;;5.93;;
18228;SDS011;9239;50.932;3.142;2023-05-20T07:47:10;6.43;;;5.55;;
18228;SDS011;9239;50.932;3.142;2023-05-20T07:49:38;7.13;;;5.68;;
18228;SDS011;9239;50.932;3.142;2023-05-20T07:52:05;7.40;;;5.05;;
18228;SDS011;9239;50.932;3.142;2023-05-20T07:54:33;6.43;;;5.82;;
18228;SDS011;9239;50.932;3.142;2023-05-20T07:57:00;6.65;;;4.75;;
18228;SDS011;9239;50.932;3.142;2023-05-20T07:59:29;8.63;;;5.68;;
18228;SDS011;9239;50.932;3.142;2023-05-20T08:01:55;6.50;;;4.82;;
18228;SDS011;9239;50.932;3.142;2023-05-20T08:04:23;6.28;;;5.07;;
18228;SDS011;9239;50.932;3.142;2023-05-20T08:06:51;7.50;;;5.35;;
18228;SDS011;9239;50.932;3.142;2023-05-20T08:09:19;8.52;;;5.50;;
18228;SDS011;9239;50.932;3.142;2023-05-20T08:11:46;7.95;;;4.53;;
18228;SDS011;9239;50.932;3.142;2023-05-20T08:14:13;5.50;;;4.93;;
18228;SDS011;9239;50.932;3.142;2023-05-20T08:16:42;5.63;;;5.13;;
18228;SDS011;9239;50.932;3.142;2023-05-20T08:19:09;7.18;;;5.18;;
18228;SDS011;9239;50.932;3.142;2023-05-20T08:21:36;6.13;;;5.40;;
18228;SDS011;9239;50.932;3.142;2023-05-20T08:24:03;6.38;;;5.38;;
18228;SDS011;9239;50.932;3.142;2023-05-20T08:26:31;7.22;;;4.82;;
18228;SDS011;9239;50.932;3.142;2023-05-20T08:28:58;6.05;;;4.78;;
18228;SDS011;9239;50.932;3.142;2023-05-20T08:31:25;7.25;;;5.22;;
18228;SDS011;9239;50.932;3.142;2023-05-20T08:33:53;9.63;;;5.50;;
18228;SDS011;9239;50.932;3.142;2023-05-20T08:36:20;6.50;;;5.18;;
18228;SDS011;9239;50.932;3.142;2023-05-20T08:38:47;6.10;;;5.03;;
18228;SDS011;9239;50.932;3.142;2023-05-20T08:41:15;6.35;;;4.90;;
18228;SDS011;9239;50.932;3.142;2023-05-20T08:43:42;5.63;;;4.55;;
18228;SDS011;9239;50.932;3.142;2023-05-20T08:46:09;6.15;;;5.10;;
18228;SDS011;9239;50.932;3.142;2023-05-20T08:48:37;4.68;;;4.28;;
18228;SDS011;9239;50.932;3.142;2023-05-20T08:51:06;7.57;;;5.05;;
18228;SDS011;9239;50.932;3.142;2023-05-20T08:53:35;4.72;;;4.32;;
18228;SDS011;9239;50.932;3.142;2023-05-20T08:56:04;4.70;;;4.18;;
18228;SDS011;9239;50.932;3.142;2023-05-20T08:58:32;5.82;;;4.60;;
18228;SDS011;9239;50.932;3.142;2023-05-20T09:00:59;4.93;;;4.40;;
18228;SDS011;9239;50.932;3.142;2023-05-20T09:03:27;7.88;;;4.68;;
18228;SDS011;9239;50.932;3.142;2023-05-20T09:06:02;5.63;;;4.00;;
18228;SDS011;9239;50.932;3.142;2023-05-20T09:08:31;4.78;;;4.13;;
18228;SDS011;9239;50.932;3.142;2023-05-20T09:10:58;5.13;;;4.53;;
18228;SDS011;9239;50.932;3.142;2023-05-20T09:13:25;7.10;;;4.65;;
18228;SDS011;9239;50.932;3.142;2023-05-20T09:15:53;5.60;;;4.57;;
18228;SDS011;9239;50.932;3.142;2023-05-20T09:18:19;5.10;;;4.60;;
18228;SDS011;9239;50.932;3.142;2023-05-20T09:20:50;4.57;;;4.03;;
18228;SDS011;9239;50.932;3.142;2023-05-20T09:23:18;5.60;;;4.43;;
18228;SDS011;9239;50.932;3.142;2023-05-20T09:25:49;5.07;;;3.95;;
18228;SDS011;9239;50.932;3.142;2023-05-20T09:28:17;4.35;;;4.05;;
18228;SDS011;9239;50.932;3.142;2023-05-20T09:30:48;6.30;;;4.93;;
18228;SDS011;9239;50.932;3.142;2023-05-20T09:33:16;9.73;;;4.40;;
18228;SDS011;9239;50.932;3.142;2023-05-20T09:35:43;5.25;;;3.92;;
18228;SDS011;9239;50.932;3.142;2023-05-20T09:38:10;4.90;;;3.83;;
18228;SDS011;9239;50.932;3.142;2023-05-20T09:40:37;4.90;;;4.50;;
18228;SDS011;9239;50.932;3.142;2023-05-20T09:43:07;4.20;;;3.80;;
18228;SDS011;9239;50.932;3.142;2023-05-20T09:45:35;4.78;;;4.38;;
18228;SDS011;9239;50.932;3.142;2023-05-20T09:48:03;4.30;;;3.95;;
18228;SDS011;9239;50.932;3.142;2023-05-20T09:50:32;4.20;;;3.42;;
18228;SDS011;9239;50.932;3.142;2023-05-20T09:53:01;4.07;;;3.78;;
18228;SDS011;9239;50.932;3.142;2023-05-20T09:55:28;5.07;;;3.85;;
18228;SDS011;9239;50.932;3.142;2023-05-20T09:57:56;5.88;;;4.15;;
18228;SDS011;9239;50.932;3.142;2023-05-20T10:00:28;5.80;;;4.28;;
18228;SDS011;9239;50.932;3.142;2023-05-20T10:02:56;4.30;;;3.90;;
18228;SDS011;9239;50.932;3.142;2023-05-20T10:05:24;5.47;;;3.72;;
18228;SDS011;9239;50.932;3.142;2023-05-20T10:08:02;5.88;;;3.50;;
18228;SDS011;9239;50.932;3.142;2023-05-20T10:10:51;6.70;;;3.30;;
18228;SDS011;9239;50.932;3.142;2023-05-20T10:13:39;6.88;;;3.80;;
18228;SDS011;9239;50.932;3.142;2023-05-20T10:16:21;4.65;;;3.13;;
18228;SDS011;9239;50.932;3.142;2023-05-20T10:18:57;4.93;;;3.10;;
18228;SDS011;9239;50.932;3.142;2023-05-20T10:21:32;5.95;;;2.83;;
18228;SDS011;9239;50.932;3.142;2023-05-20T10:24:06;5.00;;;3.08;;
18228;SDS011;9239;50.932;3.142;2023-05-20T10:26:34;4.07;;;3.15;;
18228;SDS011;9239;50.932;3.142;2023-05-20T10:29:13;4.65;;;3.33;;
18228;SDS011;9239;50.932;3.142;2023-05-20T10:31:44;7.25;;;4.00;;
18228;SDS011;9239;50.932;3.142;2023-05-20T10:34:14;4.70;;;3.45;;
18228;SDS011;9239;50.932;3.142;2023-05-20T10:36:44;6.72;;;3.70;;
18228;SDS011;9239;50.932;3.142;2023-05-20T10:39:13;7.10;;;3.45;;
18228;SDS011;9239;50.932;3.142;2023-05-20T10:41:41;4.13;;;3.65;;
18228;SDS011;9239;50.932;3.142;2023-05-20T10:44:08;5.82;;;3.78;;
18228;SDS011;9239;50.932;3.142;2023-05-20T10:46:35;6.50;;;4.53;;
18228;SDS011;9239;50.932;3.142;2023-05-20T10:49:04;5.80;;;4.00;;
18228;SDS011;9239;50.932;3.142;2023-05-20T10:51:43;5.78;;;4.95;;
18228;SDS011;9239;50.932;3.142;2023-05-20T10:54:11;8.55;;;5.15;;
18228;SDS011;9239;50.932;3.142;2023-05-20T10:56:39;9.57;;;6.45;;
18228;SDS011;9239;50.932;3.142;2023-05-20T10:59:16;10.30;;;6.78;;
18228;SDS011;9239;50.932;3.142;2023-05-20T11:01:44;10.07;;;9.00;;
18228;SDS011;9239;50.932;3.142;2023-05-20T11:04:15;6.53;;;5.93;;
18228;SDS011;9239;50.932;3.142;2023-05-20T11:06:49;6.18;;;5.55;;
18228;SDS011;9239;50.932;3.142;2023-05-20T11:09:17;9.65;;;5.20;;
18228;SDS011;9239;50.932;3.142;2023-05-20T11:11:45;8.02;;;7.05;;
18228;SDS011;9239;50.932;3.142;2023-05-20T11:14:12;6.93;;;6.07;;
18228;SDS011;9239;50.932;3.142;2023-05-20T11:16:41;6.90;;;6.30;;
18228;SDS011;9239;50.932;3.142;2023-05-20T11:19:14;5.63;;;4.88;;
18228;SDS011;9239;50.932;3.142;2023-05-20T11:21:42;4.85;;;4.18;;
18228;SDS011;9239;50.932;3.142;2023-05-20T11:24:10;5.68;;;4.65;;
18228;SDS011;9239;50.932;3.142;2023-05-20T11:26:37;8.90;;;4.50;;
18228;SDS011;9239;50.932;3.142;2023-05-20T11:29:04;5.43;;;4.93;;
18228;SDS011;9239;50.932;3.142;2023-05-20T11:31:31;6.82;;;5.72;;
18228;SDS011;9239;50.932;3.142;2023-05-20T11:33:58;5.70;;;5.20;;
18228;SDS011;9239;50.932;3.142;2023-05-20T11:36:27;5.55;;;4.95;;
18228;SDS011;9239;50.932;3.142;2023-05-20T11:38:55;5.00;;;4.55;;
18228;SDS011;9239;50.932;3.142;2023-05-20T11:41:23;4.55;;;4.25;;
18228;SDS011;9239;50.932;3.142;2023-05-20T11:43:54;5.70;;;4.47;;
18228;SDS011;9239;50.932;3.142;2023-05-20T11:46:22;6.53;;;4.75;;
18228;SDS011;9239;50.932;3.142;2023-05-20T11:48:52;3.92;;;3.63;;
18228;SDS011;9239;50.932;3.142;2023-05-20T11:51:23;8.55;;;4.22;;
18228;SDS011;9239;50.932;3.142;2023-05-20T11:53:53;6.07;;;4.38;;
18228;SDS011;9239;50.932;3.142;2023-05-20T11:56:25;6.35;;;4.22;;
18228;SDS011;9239;50.932;3.142;2023-05-20T11:58:55;5.38;;;4.28;;
18228;SDS011;9239;50.932;3.142;2023-05-20T12:01:22;4.80;;;4.05;;
18228;SDS011;9239;50.932;3.142;2023-05-20T12:03:49;4.85;;;4.32;;
18228;SDS011;9239;50.932;3.142;2023-05-20T12:06:16;5.55;;;3.85;;
18228;SDS011;9239;50.932;3.142;2023-05-20T12:08:44;8.55;;;4.20;;
18228;SDS011;9239;50.932;3.142;2023-05-20T12:11:12;5.32;;;4.03;;
18228;SDS011;9239;50.932;3.142;2023-05-20T12:13:39;5.55;;;4.20;;
18228;SDS011;9239;50.932;3.142;2023-05-20T12:16:06;6.57;;;3.90;;
18228;SDS011;9239;50.932;3.142;2023-05-20T12:18:34;7.38;;;3.85;;
18228;SDS011;9239;50.932;3.142;2023-05-20T12:21:01;5.72;;;4.20;;
18228;SDS011;9239;50.932;3.142;2023-05-20T12:23:28;6.72;;;3.45;;
18228;SDS011;9239;50.932;3.142;2023-05-20T12:25:58;5.53;;;3.45;;
18228;SDS011;9239;50.932;3.142;2023-05-20T12:28:26;5.57;;;3.80;;
18228;SDS011;9239;50.932;3.142;2023-05-20T12:30:53;7.57;;;3.60;;
18228;SDS011;9239;50.932;3.142;2023-05-20T12:33:20;5.00;;;3.95;;
18228;SDS011;9239;50.932;3.142;2023-05-20T12:35:48;4.28;;;3.58;;
18228;SDS011;9239;50.932;3.142;2023-05-20T12:38:15;6.82;;;5.80;;
18228;SDS011;9239;50.932;3.142;2023-05-20T12:40:42;5.53;;;3.25;;
18228;SDS011;9239;50.932;3.142;2023-05-20T12:43:09;4.38;;;2.90;;
18228;SDS011;9239;50.932;3.142;2023-05-20T12:45:37;4.47;;;2.85;;
18228;SDS011;9239;50.932;3.142;2023-05-20T12:48:04;5.95;;;3.58;;
18228;SDS011;9239;50.932;3.142;2023-05-20T12:50:32;3.15;;;2.85;;
18228;SDS011;9239;50.932;3.142;2023-05-20T12:52:59;3.45;;;2.92;;
18228;SDS011;9239;50.932;3.142;2023-05-20T12:55:26;3.58;;;2.60;;
18228;SDS011;9239;50.932;3.142;2023-05-20T12:57:53;5.20;;;2.78;;
18228;SDS011;9239;50.932;3.142;2023-05-20T13:00:20;4.35;;;3.10;;
18228;SDS011;9239;50.932;3.142;2023-05-20T13:02:49;5.35;;;3.03;;
18228;SDS011;9239;50.932;3.142;2023-05-20T13:05:16;5.38;;;3.20;;
18228;SDS011;9239;50.932;3.142;2023-05-20T13:07:43;3.67;;;2.80;;
18228;SDS011;9239;50.932;3.142;2023-05-20T13:10:10;3.30;;;3.00;;
18228;SDS011;9239;50.932;3.142;2023-05-20T13:12:38;3.80;;;2.97;;
18228;SDS011;9239;50.932;3.142;2023-05-20T13:15:10;4.82;;;3.15;;
18228;SDS011;9239;50.932;3.142;2023-05-20T13:17:37;3.15;;;2.85;;
18228;SDS011;9239;50.932;3.142;2023-05-20T13:20:06;5.93;;;3.05;;
18228;SDS011;9239;50.932;3.142;2023-05-20T13:22:34;3.22;;;2.85;;
18228;SDS011;9239;50.932;3.142;2023-05-20T13:25:02;3.13;;;2.45;;
18228;SDS011;9239;50.932;3.142;2023-05-20T13:27:29;3.45;;;2.95;;
18228;SDS011;9239;50.932;3.142;2023-05-20T13:29:56;5.50;;;3.17;;
18228;SDS011;9239;50.932;3.142;2023-05-20T13:32:23;4.43;;;3.33;;
18228;SDS011;9239;50.932;3.142;2023-05-20T13:34:50;3.70;;;3.00;;
18228;SDS011;9239;50.932;3.142;2023-05-20T13:37:18;4.47;;;2.72;;
18228;SDS011;9239;50.932;3.142;2023-05-20T13:39:46;3.35;;;2.50;;
18228;SDS011;9239;50.932;3.142;2023-05-20T13:42:13;3.00;;;2.72;;
18228;SDS011;9239;50.932;3.142;2023-05-20T13:44:40;2.70;;;2.50;;
18228;SDS011;9239;50.932;3.142;2023-05-20T13:47:07;3.10;;;2.70;;
18228;SDS011;9239;50.932;3.142;2023-05-20T13:49:34;3.65;;;2.45;;
18228;SDS011;9239;50.932;3.142;2023-05-20T13:52:01;3.17;;;2.20;;
18228;SDS011;9239;50.932;3.142;2023-05-20T13:54:29;2.95;;;2.65;;
18228;SDS011;9239;50.932;3.142;2023-05-20T13:56:56;5.10;;;2.60;;
18228;SDS011;9239;50.932;3.142;2023-05-20T13:59:23;5.93;;;3.10;;
18228;SDS011;9239;50.932;3.142;2023-05-20T14:01:52;4.22;;;2.80;;
18228;SDS011;9239;50.932;3.142;2023-05-20T14:04:19;4.82;;;2.70;;
18228;SDS011;9239;50.932;3.142;2023-05-20T14:06:46;3.20;;;2.85;;
18228;SDS011;9239;50.932;3.142;2023-05-20T14:09:13;5.95;;;2.80;;
18228;SDS011;9239;50.932;3.142;2023-05-20T14:11:41;4.53;;;2.40;;
18228;SDS011;9239;50.932;3.142;2023-05-20T14:14:08;4.75;;;2.88;;
18228;SDS011;9239;50.932;3.142;2023-05-20T14:16:35;6.57;;;2.83;;
18228;SDS011;9239;50.932;3.142;2023-05-20T14:19:03;4.68;;;2.50;;
18228;SDS011;9239;50.932;3.142;2023-05-20T14:21:30;2.97;;;2.72;;
18228;SDS011;9239;50.932;3.142;2023-05-20T14:23:59;3.55;;;2.67;;
18228;SDS011;9239;50.932;3.142;2023-05-20T14:26:26;4.90;;;3.45;;
18228;SDS011;9239;50.932;3.142;2023-05-20T14:28:54;4.22;;;2.63;;
18228;SDS011;9239;50.932;3.142;2023-05-20T14:31:21;6.50;;;3.53;;
18228;SDS011;9239;50.932;3.142;2023-05-20T14:33:48;5.53;;;3.20;;
18228;SDS011;9239;50.932;3.142;2023-05-20T14:36:15;4.10;;;3.70;;
18228;SDS011;9239;50.932;3.142;2023-05-20T14:38:42;5.25;;;3.60;;
18228;SDS011;9239;50.932;3.142;2023-05-20T14:41:09;8.20;;;4.35;;
18228;SDS011;9239;50.932;3.142;2023-05-20T14:43:36;4.45;;;3.38;;
18228;SDS011;9239;50.932;3.142;2023-05-20T14:46:05;3.85;;;3.50;;
18228;SDS011;9239;50.932;3.142;2023-05-20T14:48:32;4.28;;;3.42;;
18228;SDS011;9239;50.932;3.142;2023-05-20T14:51:02;5.93;;;3.75;;
18228;SDS011;9239;50.932;3.142;2023-05-20T14:53:29;5.95;;;4.00;;
18228;SDS011;9239;50.932;3.142;2023-05-20T14:55:56;5.57;;;3.10;;
18228;SDS011;9239;50.932;3.142;2023-05-20T14:58:23;11.32;;;4.03;;
18228;SDS011;9239;50.932;3.142;2023-05-20T15:00:51;5.35;;;3.17;;